createdAt,value
2023-01-30T00:00:52.810Z,1013.37
2023-01-30T00:01:52.672Z,1013.38
2023-01-30T00:02:59.526Z,1013.41
2023-01-30T00:03:52.557Z,1013.41
2023-01-30T00:04:52.562Z,1013.38
2023-01-30T00:05:52.530Z,1013.35
2023-01-30T00:06:52.558Z,1013.30
2023-01-30T00:07:52.530Z,1013.28
2023-01-30T00:08:52.556Z,1013.29
2023-01-30T00:09:52.511Z,1013.25
2023-01-30T00:10:52.492Z,1013.22
2023-01-30T00:11:52.482Z,1013.18
2023-01-30T00:12:52.494Z,1013.11
2023-01-30T00:13:52.506Z,1013.13
2023-01-30T00:14:52.443Z,1013.20
2023-01-30T00:15:52.449Z,1013.19
2023-01-30T00:16:52.427Z,1013.23
2023-01-30T00:17:52.449Z,1013.20
2023-01-30T00:18:52.452Z,1013.05
2023-01-30T00:19:52.392Z,1012.97
2023-01-30T00:20:52.395Z,1013.01
2023-01-30T00:21:52.376Z,1013.10
2023-01-30T00:23:00.383Z,1013.11
2023-01-30T00:23:52.390Z,1012.99
2023-01-30T00:24:52.449Z,1012.96
2023-01-30T00:25:52.438Z,1012.96
2023-01-30T00:26:52.344Z,1012.92
2023-01-30T00:27:52.320Z,1012.90
2023-01-30T00:28:52.395Z,1012.90
2023-01-30T00:30:02.462Z,1012.81
2023-01-30T00:30:52.321Z,1012.69
2023-01-30T00:31:52.317Z,1012.57
2023-01-30T00:32:52.346Z,1012.48
2023-01-30T00:33:52.257Z,1012.46
2023-01-30T00:34:52.257Z,1012.36
2023-01-30T00:35:52.244Z,1012.31
2023-01-30T00:37:07.133Z,1012.27
2023-01-30T00:37:52.232Z,1012.21
2023-01-30T00:38:52.252Z,1012.11
2023-01-30T00:39:52.196Z,1012.10
2023-01-30T00:40:52.190Z,1012.19
2023-01-30T00:41:52.177Z,1012.29
2023-01-30T00:42:52.178Z,1012.32
2023-01-30T00:43:52.212Z,1012.45
2023-01-30T00:44:52.162Z,1012.51
2023-01-30T00:45:52.163Z,1012.54
2023-01-30T00:46:52.154Z,1012.52
2023-01-30T00:47:52.129Z,1012.51
2023-01-30T00:48:52.149Z,1012.53
2023-01-30T00:49:52.102Z,1012.60
2023-01-30T00:50:52.096Z,1012.67
2023-01-30T00:51:52.103Z,1012.63
2023-01-30T00:52:52.091Z,1012.59
2023-01-30T00:53:52.062Z,1012.57
2023-01-30T00:54:52.083Z,1012.60
2023-01-30T00:55:52.095Z,1012.56
2023-01-30T00:56:52.112Z,1012.55
2023-01-30T00:57:52.025Z,1012.50
2023-01-30T00:58:52.026Z,1012.43
2023-01-30T00:59:52.031Z,1012.43
2023-01-30T01:00:51.999Z,1012.46
2023-01-30T01:01:52.043Z,1012.44
2023-01-30T01:02:52.008Z,1012.36
2023-01-30T01:03:51.968Z,1012.29
2023-01-30T01:04:51.974Z,1012.29
2023-01-30T01:05:51.945Z,1012.31
2023-01-30T01:06:52.067Z,1012.25
2023-01-30T01:07:51.938Z,1012.27
2023-01-30T01:08:51.916Z,1012.28
2023-01-30T01:09:51.901Z,1012.29
2023-01-30T01:10:51.901Z,1012.27
2023-01-30T01:11:51.920Z,1012.20
2023-01-30T01:12:51.922Z,1012.23
2023-01-30T01:13:51.869Z,1012.27
2023-01-30T01:14:51.884Z,1012.32
2023-01-30T01:15:51.889Z,1012.26
2023-01-30T01:16:51.875Z,1012.20
2023-01-30T01:17:51.835Z,1012.17
2023-01-30T01:18:51.843Z,1012.18
2023-01-30T01:19:51.816Z,1012.18
2023-01-30T01:20:51.836Z,1012.20
2023-01-30T01:21:51.849Z,1012.20
2023-01-30T01:22:51.785Z,1012.18
2023-01-30T01:23:51.782Z,1012.12
2023-01-30T01:24:51.797Z,1012.05
2023-01-30T01:25:51.801Z,1011.99
2023-01-30T01:26:51.795Z,1012.00
2023-01-30T01:27:51.729Z,1012.00
2023-01-30T01:28:51.746Z,1012.02
2023-01-30T01:29:51.728Z,1012.06
2023-01-30T01:30:51.776Z,1012.07
2023-01-30T01:31:51.749Z,1012.15
2023-01-30T01:32:51.734Z,1012.16
2023-01-30T01:33:51.705Z,1012.17
2023-01-30T01:34:51.718Z,1012.17
2023-01-30T01:35:51.671Z,1012.16
2023-01-30T01:36:53.893Z,1012.07
2023-01-30T01:37:51.675Z,1012.03
2023-01-30T01:38:51.678Z,1012.02
2023-01-30T01:39:51.635Z,1012.00
2023-01-30T01:40:51.614Z,1011.98
2023-01-30T01:41:51.613Z,1011.96
2023-01-30T01:42:51.602Z,1012.00
2023-01-30T01:43:51.585Z,1012.01
2023-01-30T01:44:51.617Z,1012.03
2023-01-30T01:45:51.660Z,1012.07
2023-01-30T01:46:51.557Z,1012.02
2023-01-30T01:47:51.541Z,1012.01
2023-01-30T01:48:51.540Z,1011.99
2023-01-30T01:49:51.546Z,1011.98
2023-01-30T01:50:51.533Z,1011.93
2023-01-30T01:51:51.530Z,1011.88
2023-01-30T01:52:52.204Z,1011.82
2023-01-30T01:53:51.512Z,1011.80
2023-01-30T01:54:51.494Z,1011.75
2023-01-30T01:55:51.467Z,1011.76
2023-01-30T01:56:51.455Z,1011.77
2023-01-30T01:57:51.469Z,1011.77
2023-01-30T01:58:51.522Z,1011.76
2023-01-30T01:59:51.445Z,1011.72
2023-01-30T02:00:51.476Z,1011.72
2023-01-30T02:01:51.428Z,1011.73
2023-01-30T02:02:51.428Z,1011.73
2023-01-30T02:03:51.413Z,1011.77
2023-01-30T02:04:51.387Z,1011.74
2023-01-30T02:05:51.384Z,1011.78
2023-01-30T02:06:51.357Z,1011.75
2023-01-30T02:07:51.347Z,1011.69
2023-01-30T02:08:51.359Z,1011.63
2023-01-30T02:09:51.365Z,1011.57
2023-01-30T02:10:51.321Z,1011.52
2023-01-30T02:11:51.322Z,1011.48
2023-01-30T02:12:51.310Z,1011.47
2023-01-30T02:13:51.285Z,1011.49
2023-01-30T02:14:51.290Z,1011.46
2023-01-30T02:15:51.308Z,1011.42
2023-01-30T02:16:51.282Z,1011.40
2023-01-30T02:17:51.288Z,1011.36
2023-01-30T02:18:51.265Z,1011.41
2023-01-30T02:19:51.256Z,1011.40
2023-01-30T02:20:51.274Z,1011.45
2023-01-30T02:21:51.231Z,1011.48
2023-01-30T02:22:51.206Z,1011.53
2023-01-30T02:23:51.205Z,1011.51
2023-01-30T02:24:51.187Z,1011.53
2023-01-30T02:25:51.161Z,1011.53
2023-01-30T02:26:51.160Z,1011.54
2023-01-30T02:27:51.154Z,1011.49
2023-01-30T02:28:51.140Z,1011.45
2023-01-30T02:29:51.142Z,1011.43
2023-01-30T02:30:51.216Z,1011.44
2023-01-30T02:31:51.155Z,1011.44
2023-01-30T02:32:51.099Z,1011.46
2023-01-30T02:33:51.114Z,1011.47
2023-01-30T02:34:51.112Z,1011.48
2023-01-30T02:35:51.100Z,1011.49
2023-01-30T02:36:51.067Z,1011.46
2023-01-30T02:37:51.053Z,1011.47
2023-01-30T02:38:51.047Z,1011.46
2023-01-30T02:39:51.035Z,1011.43
2023-01-30T02:40:51.057Z,1011.36
2023-01-30T02:41:51.017Z,1011.30
2023-01-30T02:42:51.012Z,1011.30
2023-01-30T02:43:51.014Z,1011.28
2023-01-30T02:44:51.000Z,1011.27
2023-01-30T02:45:51.053Z,1011.27
2023-01-30T02:46:50.993Z,1011.27
2023-01-30T02:47:51.000Z,1011.22
2023-01-30T02:48:50.979Z,1011.22
2023-01-30T02:49:50.952Z,1011.21
2023-01-30T02:50:50.984Z,1011.22
2023-01-30T02:51:50.971Z,1011.23
2023-01-30T02:52:50.916Z,1011.27
2023-01-30T02:53:50.912Z,1011.30
2023-01-30T02:54:50.943Z,1011.33
2023-01-30T02:55:50.890Z,1011.33
2023-01-30T02:56:50.883Z,1011.33
2023-01-30T02:57:50.861Z,1011.36
2023-01-30T02:58:50.845Z,1011.32
2023-01-30T02:59:50.874Z,1011.26
2023-01-30T03:00:50.824Z,1011.27
2023-01-30T03:01:50.857Z,1011.29
2023-01-30T03:02:50.971Z,1011.28
2023-01-30T03:03:50.822Z,1011.30
2023-01-30T03:04:50.781Z,1011.32
2023-01-30T03:05:50.794Z,1011.32
2023-01-30T03:06:50.793Z,1011.32
2023-01-30T03:07:50.790Z,1011.33
2023-01-30T03:08:50.778Z,1011.29
2023-01-30T03:09:50.740Z,1011.26
2023-01-30T03:10:50.724Z,1011.27
2023-01-30T03:11:50.736Z,1011.30
2023-01-30T03:12:50.739Z,1011.35
2023-01-30T03:13:50.715Z,1011.42
2023-01-30T03:14:50.691Z,1011.47
2023-01-30T03:15:50.684Z,1011.48
2023-01-30T03:16:50.685Z,1011.41
2023-01-30T03:17:50.685Z,1011.37
2023-01-30T03:18:50.660Z,1011.35
2023-01-30T03:19:50.657Z,1011.38
2023-01-30T03:20:50.625Z,1011.38
2023-01-30T03:21:50.631Z,1011.38
2023-01-30T03:22:50.655Z,1011.36
2023-01-30T03:23:50.620Z,1011.31
2023-01-30T03:24:50.585Z,1011.22
2023-01-30T03:25:50.604Z,1011.20
2023-01-30T03:26:50.600Z,1011.16
2023-01-30T03:27:50.577Z,1011.14
2023-01-30T03:28:50.570Z,1011.12
2023-01-30T03:29:50.560Z,1011.06
2023-01-30T03:30:50.673Z,1011.03
2023-01-30T03:31:50.570Z,1010.99
2023-01-30T03:32:50.533Z,1011.00
2023-01-30T03:33:50.555Z,1011.03
2023-01-30T03:34:50.522Z,1011.06
2023-01-30T03:35:50.503Z,1011.09
2023-01-30T03:36:50.476Z,1011.13
2023-01-30T03:37:50.472Z,1011.11
2023-01-30T03:38:50.454Z,1011.09
2023-01-30T03:39:50.492Z,1011.06
2023-01-30T03:40:50.430Z,1010.99
2023-01-30T03:41:50.431Z,1010.95
2023-01-30T03:42:50.408Z,1010.90
2023-01-30T03:43:50.426Z,1010.91
2023-01-30T03:44:50.404Z,1010.90
2023-01-30T03:45:50.434Z,1010.93
2023-01-30T03:46:50.378Z,1010.95
2023-01-30T03:47:50.378Z,1010.92
2023-01-30T03:48:50.393Z,1010.95
2023-01-30T03:49:50.352Z,1010.94
2023-01-30T03:50:50.344Z,1010.89
2023-01-30T03:51:50.346Z,1010.90
2023-01-30T03:52:50.312Z,1010.93
2023-01-30T03:53:50.382Z,1010.89
2023-01-30T03:54:50.292Z,1010.88
2023-01-30T03:55:50.311Z,1010.86
2023-01-30T03:56:50.287Z,1010.80
2023-01-30T03:57:50.302Z,1010.77
2023-01-30T03:58:50.251Z,1010.76
2023-01-30T03:59:50.269Z,1010.80
2023-01-30T04:00:50.265Z,1010.79
2023-01-30T04:01:50.240Z,1010.82
2023-01-30T04:02:50.230Z,1010.76
2023-01-30T04:03:50.219Z,1010.74
2023-01-30T04:04:50.264Z,1010.72
2023-01-30T04:05:50.184Z,1010.69
2023-01-30T04:06:50.179Z,1010.66
2023-01-30T04:07:50.183Z,1010.63
2023-01-30T04:08:50.170Z,1010.55
2023-01-30T04:09:50.199Z,1010.54
2023-01-30T04:10:50.166Z,1010.56
2023-01-30T04:11:50.133Z,1010.61
2023-01-30T04:12:50.110Z,1010.61
2023-01-30T04:13:50.132Z,1010.64
2023-01-30T04:14:50.104Z,1010.64
2023-01-30T04:15:50.116Z,1010.61
2023-01-30T04:16:50.158Z,1010.61
2023-01-30T04:17:50.109Z,1010.60
2023-01-30T04:18:50.060Z,1010.60
2023-01-30T04:19:50.051Z,1010.58
2023-01-30T04:20:50.062Z,1010.57
2023-01-30T04:21:50.057Z,1010.55
2023-01-30T04:22:50.024Z,1010.51
2023-01-30T04:23:50.019Z,1010.47
2023-01-30T04:24:49.999Z,1010.40
2023-01-30T04:25:49.991Z,1010.39
2023-01-30T04:26:50.007Z,1010.36
2023-01-30T04:27:50.012Z,1010.36
2023-01-30T04:28:49.966Z,1010.34
2023-01-30T04:29:49.945Z,1010.29
2023-01-30T04:30:49.970Z,1010.26
2023-01-30T04:31:49.941Z,1010.23
2023-01-30T04:32:49.947Z,1010.27
2023-01-30T04:33:49.922Z,1010.28
2023-01-30T04:34:49.894Z,1010.29
2023-01-30T04:35:49.903Z,1010.26
2023-01-30T04:36:49.904Z,1010.21
2023-01-30T04:37:49.911Z,1010.16
2023-01-30T04:38:49.861Z,1010.10
2023-01-30T04:39:49.897Z,1010.08
2023-01-30T04:40:49.844Z,1010.08
2023-01-30T04:41:49.860Z,1010.03
2023-01-30T04:42:49.834Z,1009.98
2023-01-30T04:43:49.837Z,1009.96
2023-01-30T04:44:49.853Z,1009.96
2023-01-30T04:45:50.789Z,1009.92
2023-01-30T04:46:49.789Z,1009.87
2023-01-30T04:47:49.819Z,1009.87
2023-01-30T04:48:49.783Z,1009.91
2023-01-30T04:49:49.775Z,1009.96
2023-01-30T04:50:49.796Z,1009.97
2023-01-30T04:51:49.746Z,1009.99
2023-01-30T04:52:49.737Z,1009.98
2023-01-30T04:53:49.716Z,1009.96
2023-01-30T04:54:49.724Z,1009.95
2023-01-30T04:55:49.736Z,1009.92
2023-01-30T04:56:49.687Z,1009.95
2023-01-30T04:57:49.671Z,1009.88
2023-01-30T04:58:49.669Z,1009.85
2023-01-30T04:59:49.687Z,1009.86
2023-01-30T05:00:49.800Z,1009.82
2023-01-30T05:01:49.728Z,1009.82
2023-01-30T05:02:49.633Z,1009.89
2023-01-30T05:03:49.610Z,1009.91
2023-01-30T05:04:49.625Z,1009.90
2023-01-30T05:05:49.627Z,1009.85
2023-01-30T05:06:49.581Z,1009.83
2023-01-30T05:07:49.574Z,1009.79
2023-01-30T05:08:49.569Z,1009.71
2023-01-30T05:09:49.578Z,1009.71
2023-01-30T05:10:49.569Z,1009.69
2023-01-30T05:11:49.546Z,1009.71
2023-01-30T05:12:49.521Z,1009.73
2023-01-30T05:13:49.532Z,1009.71
2023-01-30T05:14:49.656Z,1009.68
2023-01-30T05:15:49.503Z,1009.68
2023-01-30T05:16:49.559Z,1009.65
2023-01-30T05:17:49.515Z,1009.65
2023-01-30T05:18:49.464Z,1009.64
2023-01-30T05:19:49.397Z,1009.66
2023-01-30T05:20:49.464Z,1009.67
2023-01-30T05:21:49.434Z,1009.70
2023-01-30T05:22:49.426Z,1009.73
2023-01-30T05:23:49.409Z,1009.70
2023-01-30T05:24:49.357Z,1009.66
2023-01-30T05:25:49.416Z,1009.63
2023-01-30T05:26:49.418Z,1009.60
2023-01-30T05:27:49.367Z,1009.66
2023-01-30T05:28:49.316Z,1009.62
2023-01-30T05:29:49.356Z,1009.60
2023-01-30T05:30:49.406Z,1009.57
2023-01-30T05:31:49.348Z,1009.57
2023-01-30T05:32:49.339Z,1009.51
2023-01-30T05:33:49.321Z,1009.52
2023-01-30T05:34:49.306Z,1009.53
2023-01-30T05:35:49.320Z,1009.47
2023-01-30T05:36:49.327Z,1009.47
2023-01-30T05:37:49.283Z,1009.47
2023-01-30T05:38:49.313Z,1009.44
2023-01-30T05:39:49.261Z,1009.45
2023-01-30T05:40:49.249Z,1009.41
2023-01-30T05:41:49.252Z,1009.45
2023-01-30T05:42:49.215Z,1009.42
2023-01-30T05:43:49.211Z,1009.42
2023-01-30T05:44:49.225Z,1009.41
2023-01-30T05:45:49.199Z,1009.35
2023-01-30T05:46:49.268Z,1009.35
2023-01-30T05:47:49.175Z,1009.27
2023-01-30T05:48:49.151Z,1009.24
2023-01-30T05:49:49.168Z,1009.14
2023-01-30T05:50:49.163Z,1009.11
2023-01-30T05:51:51.299Z,1009.08
2023-01-30T05:52:49.077Z,1009.05
2023-01-30T05:53:49.173Z,1009.07
2023-01-30T05:54:49.124Z,1009.08
2023-01-30T05:55:49.104Z,1009.03
2023-01-30T05:56:49.100Z,1009.05
2023-01-30T05:57:49.068Z,1009.07
2023-01-30T05:58:49.059Z,1009.12
2023-01-30T05:59:49.059Z,1009.15
2023-01-30T06:00:49.006Z,1009.17
2023-01-30T06:01:49.044Z,1009.19
2023-01-30T06:02:49.114Z,1009.19
2023-01-30T06:03:49.153Z,1009.16
2023-01-30T06:04:48.995Z,1009.16
2023-01-30T06:05:49.027Z,1009.20
2023-01-30T06:06:48.984Z,1009.17
2023-01-30T06:07:49.017Z,1009.22
2023-01-30T06:08:48.958Z,1009.19
2023-01-30T06:09:48.897Z,1009.17
2023-01-30T06:10:48.971Z,1009.20
2023-01-30T06:11:48.949Z,1009.18
2023-01-30T06:12:48.934Z,1009.17
2023-01-30T06:13:48.918Z,1009.17
2023-01-30T06:14:48.935Z,1009.16
2023-01-30T06:15:48.929Z,1009.08
2023-01-30T06:16:48.908Z,1009.05
2023-01-30T06:17:48.892Z,1009.04
2023-01-30T06:18:48.908Z,1009.04
2023-01-30T06:19:48.853Z,1009.06
2023-01-30T06:20:48.916Z,1009.07
2023-01-30T06:21:48.839Z,1009.00
2023-01-30T06:22:48.849Z,1009.00
2023-01-30T06:23:48.813Z,1008.97
2023-01-30T06:24:48.825Z,1008.96
2023-01-30T06:25:48.901Z,1008.90
2023-01-30T06:26:48.782Z,1008.95
2023-01-30T06:27:48.785Z,1008.93
2023-01-30T06:28:48.793Z,1008.96
2023-01-30T06:29:48.772Z,1008.98
2023-01-30T06:30:48.915Z,1008.98
2023-01-30T06:31:48.755Z,1009.03
2023-01-30T06:32:48.737Z,1008.99
2023-01-30T06:33:48.725Z,1009.02
2023-01-30T06:34:48.709Z,1009.02
2023-01-30T06:35:48.731Z,1009.12
2023-01-30T06:36:48.693Z,1009.16
2023-01-30T06:37:48.689Z,1009.08
2023-01-30T06:38:48.642Z,1009.17
2023-01-30T06:39:48.595Z,1009.15
2023-01-30T06:40:48.670Z,1009.13
2023-01-30T06:41:48.638Z,1009.18
2023-01-30T06:42:48.597Z,1009.15
2023-01-30T06:43:48.626Z,1009.16
2023-01-30T06:44:48.633Z,1009.11
2023-01-30T06:45:48.648Z,1009.15
2023-01-30T06:46:48.597Z,1009.15
2023-01-30T06:47:48.543Z,1009.16
2023-01-30T06:48:48.564Z,1009.17
2023-01-30T06:49:48.507Z,1009.19
2023-01-30T06:50:48.496Z,1009.19
2023-01-30T06:51:48.507Z,1009.11
2023-01-30T06:52:48.480Z,1009.09
2023-01-30T06:53:48.469Z,1009.09
2023-01-30T06:54:48.512Z,1009.06
2023-01-30T06:55:48.464Z,1009.13
2023-01-30T06:56:48.464Z,1009.21
2023-01-30T06:57:48.437Z,1009.29
2023-01-30T06:58:48.412Z,1009.31
2023-01-30T06:59:48.450Z,1009.28
2023-01-30T07:00:48.442Z,1009.31
2023-01-30T07:01:48.408Z,1009.30
2023-01-30T07:02:48.367Z,1009.26
2023-01-30T07:03:48.495Z,1009.29
2023-01-30T07:04:48.397Z,1009.26
2023-01-30T07:05:48.375Z,1009.39
2023-01-30T07:06:48.341Z,1009.35
2023-01-30T07:07:48.339Z,1009.38
2023-01-30T07:08:48.369Z,1009.39
2023-01-30T07:10:02.155Z,1009.42
2023-01-30T07:10:48.339Z,1009.37
2023-01-30T07:11:48.313Z,1009.38
2023-01-30T07:12:48.288Z,1009.39
2023-01-30T07:13:48.304Z,1009.39
2023-01-30T07:14:48.267Z,1009.34
2023-01-30T07:15:48.248Z,1009.38
2023-01-30T07:16:48.371Z,1009.45
2023-01-30T07:17:48.226Z,1009.44
2023-01-30T07:18:48.243Z,1009.45
2023-01-30T07:19:48.222Z,1009.55
2023-01-30T07:20:48.239Z,1009.54
2023-01-30T07:21:48.201Z,1009.53
2023-01-30T07:22:48.192Z,1009.54
2023-01-30T07:23:48.173Z,1009.51
2023-01-30T07:24:48.225Z,1009.40
2023-01-30T07:25:48.192Z,1009.31
2023-01-30T07:26:48.200Z,1009.18
2023-01-30T07:27:48.146Z,1009.12
2023-01-30T07:28:48.153Z,1009.14
2023-01-30T07:29:48.102Z,1009.23
2023-01-30T07:30:48.145Z,1009.31
2023-01-30T07:31:48.115Z,1009.36
2023-01-30T07:32:48.098Z,1009.37
2023-01-30T07:33:48.069Z,1009.40
2023-01-30T07:34:48.071Z,1009.39
2023-01-30T07:35:48.073Z,1009.37
2023-01-30T07:36:48.115Z,1009.36
2023-01-30T07:37:48.078Z,1009.29
2023-01-30T07:38:48.062Z,1009.28
2023-01-30T07:39:48.015Z,1009.25
2023-01-30T07:40:47.999Z,1009.28
2023-01-30T07:41:48.032Z,1009.28
2023-01-30T07:42:48.274Z,1009.33
2023-01-30T07:43:47.961Z,1009.35
2023-01-30T07:44:47.967Z,1009.42
2023-01-30T07:45:47.970Z,1009.40
2023-01-30T07:46:47.985Z,1009.36
2023-01-30T07:47:47.923Z,1009.42
2023-01-30T07:48:47.931Z,1009.44
2023-01-30T07:49:48.076Z,1009.39
2023-01-30T07:50:47.909Z,1009.33
2023-01-30T07:51:47.891Z,1009.36
2023-01-30T07:52:47.904Z,1009.34
2023-01-30T07:53:47.927Z,1009.29
2023-01-30T07:54:47.892Z,1009.34
2023-01-30T07:55:47.857Z,1009.37
2023-01-30T07:56:47.843Z,1009.42
2023-01-30T07:57:47.837Z,1009.40
2023-01-30T07:58:47.841Z,1009.37
2023-01-30T07:59:47.834Z,1009.29
2023-01-30T08:00:47.986Z,1009.23
2023-01-30T08:01:47.818Z,1009.28
2023-01-30T08:02:47.773Z,1009.34
2023-01-30T08:03:47.797Z,1009.39
2023-01-30T08:04:47.850Z,1009.37
2023-01-30T08:05:47.779Z,1009.38
2023-01-30T08:06:47.783Z,1009.31
2023-01-30T08:07:47.728Z,1009.34
2023-01-30T08:08:47.732Z,1009.35
2023-01-30T08:09:47.737Z,1009.32
2023-01-30T08:10:47.700Z,1009.31
2023-01-30T08:11:47.881Z,1009.20
2023-01-30T08:12:47.691Z,1009.18
2023-01-30T08:13:47.666Z,1009.19
2023-01-30T08:14:47.685Z,1009.19
2023-01-30T08:15:47.862Z,1009.16
2023-01-30T08:16:47.638Z,1009.20
2023-01-30T08:17:47.660Z,1009.16
2023-01-30T08:18:47.615Z,1009.20
2023-01-30T08:19:47.742Z,1009.20
2023-01-30T08:20:47.623Z,1009.20
2023-01-30T08:21:47.625Z,1009.24
2023-01-30T08:22:47.923Z,1009.21
2023-01-30T08:23:47.605Z,1009.22
2023-01-30T08:24:47.627Z,1009.19
2023-01-30T08:25:47.551Z,1009.18
2023-01-30T08:26:47.629Z,1009.16
2023-01-30T08:27:47.552Z,1009.12
2023-01-30T08:28:47.525Z,1009.09
2023-01-30T08:29:49.025Z,1009.15
2023-01-30T08:30:47.545Z,1009.16
2023-01-30T08:31:47.543Z,1009.21
2023-01-30T08:32:47.522Z,1009.25
2023-01-30T08:33:47.514Z,1009.28
2023-01-30T08:34:47.464Z,1009.29
2023-01-30T08:35:47.481Z,1009.37
2023-01-30T08:36:47.461Z,1009.31
2023-01-30T08:37:47.637Z,1009.21
2023-01-30T08:38:47.440Z,1009.27
2023-01-30T08:39:47.409Z,1009.17
2023-01-30T08:40:47.425Z,1009.20
2023-01-30T08:41:47.435Z,1009.14
2023-01-30T08:42:47.513Z,1009.23
2023-01-30T08:43:47.363Z,1009.17
2023-01-30T08:44:47.371Z,1009.20
2023-01-30T08:45:47.492Z,1009.28
2023-01-30T08:46:47.406Z,1009.25
2023-01-30T08:47:47.369Z,1009.18
2023-01-30T08:48:50.280Z,1009.18
2023-01-30T08:49:47.299Z,1009.12
2023-01-30T08:50:47.353Z,1009.01
2023-01-30T08:51:47.284Z,1009.04
2023-01-30T08:52:47.348Z,1009.01
2023-01-30T08:53:47.390Z,1008.98
2023-01-30T08:54:47.255Z,1008.96
2023-01-30T08:55:47.260Z,1008.95
2023-01-30T08:56:47.239Z,1008.97
2023-01-30T08:57:47.264Z,1008.95
2023-01-30T08:58:47.245Z,1008.95
2023-01-30T08:59:47.216Z,1008.96
2023-01-30T09:00:48.727Z,1008.94
2023-01-30T09:01:47.187Z,1008.93
2023-01-30T09:02:50.053Z,1008.95
2023-01-30T09:03:47.236Z,1008.98
2023-01-30T09:04:47.164Z,1009.02
2023-01-30T09:05:47.166Z,1008.98
2023-01-30T09:06:47.224Z,1008.98
2023-01-30T09:07:47.139Z,1008.89
2023-01-30T09:08:47.140Z,1008.87
2023-01-30T09:09:47.124Z,1008.86
2023-01-30T09:10:47.098Z,1008.72
2023-01-30T09:11:47.249Z,1008.61
2023-01-30T09:12:47.097Z,1008.67
2023-01-30T09:13:48.796Z,1008.59
2023-01-30T09:14:47.055Z,1008.61
2023-01-30T09:15:47.086Z,1008.68
2023-01-30T09:16:47.110Z,1008.64
2023-01-30T09:17:47.067Z,1008.72
2023-01-30T09:18:47.029Z,1008.75
2023-01-30T09:19:47.057Z,1008.80
2023-01-30T09:20:46.995Z,1008.77
2023-01-30T09:21:46.989Z,1008.72
2023-01-30T09:22:47.005Z,1008.77
2023-01-30T09:23:46.977Z,1008.73
2023-01-30T09:24:46.968Z,1008.74
2023-01-30T09:25:47.001Z,1008.79
2023-01-30T09:26:46.982Z,1008.88
2023-01-30T09:27:46.984Z,1008.85
2023-01-30T09:28:46.943Z,1008.84
2023-01-30T09:29:46.961Z,1008.83
2023-01-30T09:30:46.997Z,1008.84
2023-01-30T09:31:46.963Z,1008.85
2023-01-30T09:32:46.965Z,1008.79
2023-01-30T09:33:46.899Z,1008.82
2023-01-30T09:34:46.854Z,1008.77
2023-01-30T09:35:46.863Z,1008.75
2023-01-30T09:36:46.858Z,1008.72
2023-01-30T09:37:46.838Z,1008.73
2023-01-30T09:38:46.848Z,1008.68
2023-01-30T09:39:46.805Z,1008.67
2023-01-30T09:40:46.823Z,1008.57
2023-01-30T09:41:46.783Z,1008.61
2023-01-30T09:42:46.779Z,1008.58
2023-01-30T09:43:46.804Z,1008.58
2023-01-30T09:44:46.784Z,1008.62
2023-01-30T09:45:46.904Z,1008.63
2023-01-30T09:46:46.801Z,1008.71
2023-01-30T09:47:46.782Z,1008.66
2023-01-30T09:48:46.843Z,1008.75
2023-01-30T09:49:46.740Z,1008.78
2023-01-30T09:50:46.730Z,1008.83
2023-01-30T09:51:46.723Z,1008.83
2023-01-30T09:52:46.703Z,1008.77
2023-01-30T09:53:46.699Z,1008.78
2023-01-30T09:54:46.693Z,1008.78
2023-01-30T09:55:46.662Z,1008.79
2023-01-30T09:56:46.720Z,1008.79
2023-01-30T09:57:46.717Z,1008.75
2023-01-30T09:58:46.837Z,1008.74
2023-01-30T09:59:46.671Z,1008.81
2023-01-30T10:00:46.609Z,1008.78
2023-01-30T10:01:46.593Z,1008.75
2023-01-30T10:02:46.625Z,1008.78
2023-01-30T10:03:46.613Z,1008.81
2023-01-30T10:05:00.546Z,1008.77
2023-01-30T10:05:46.608Z,1008.82
2023-01-30T10:06:46.545Z,1008.74
2023-01-30T10:07:46.633Z,1008.72
2023-01-30T10:08:46.556Z,1008.83
2023-01-30T10:09:46.509Z,1008.80
2023-01-30T10:10:47.321Z,1008.82
2023-01-30T10:11:46.529Z,1008.79
2023-01-30T10:12:46.492Z,1008.87
2023-01-30T10:13:46.511Z,1008.80
2023-01-30T10:14:46.465Z,1008.82
2023-01-30T10:15:46.469Z,1008.78
2023-01-30T10:16:46.464Z,1008.71
2023-01-30T10:17:46.493Z,1008.68
2023-01-30T10:18:46.526Z,1008.70
2023-01-30T10:19:46.509Z,1008.70
2023-01-30T10:20:46.425Z,1008.61
2023-01-30T10:21:46.408Z,1008.65
2023-01-30T10:22:46.405Z,1008.61
2023-01-30T10:23:46.489Z,1008.62
2023-01-30T10:24:46.441Z,1008.53
2023-01-30T10:25:46.356Z,1008.56
2023-01-30T10:26:46.683Z,1008.62
2023-01-30T10:27:46.348Z,1008.53
2023-01-30T10:28:52.425Z,1008.51
2023-01-30T10:29:46.326Z,1008.52
2023-01-30T10:30:46.382Z,1008.47
2023-01-30T10:31:46.469Z,1008.52
2023-01-30T10:32:46.310Z,1008.52
2023-01-30T10:33:46.309Z,1008.51
2023-01-30T10:34:46.270Z,1008.48
2023-01-30T10:35:46.297Z,1008.45
2023-01-30T10:36:46.280Z,1008.45
2023-01-30T10:37:46.251Z,1008.46
2023-01-30T10:38:46.229Z,1008.48
2023-01-30T10:39:54.814Z,1008.46
2023-01-30T10:40:46.244Z,1008.46
2023-01-30T10:41:46.216Z,1008.39
2023-01-30T10:42:46.229Z,1008.41
2023-01-30T10:43:46.212Z,1008.39
2023-01-30T10:44:46.172Z,1008.41
2023-01-30T10:45:46.156Z,1008.39
2023-01-30T10:46:46.165Z,1008.44
2023-01-30T10:47:47.888Z,1008.43
2023-01-30T10:48:46.660Z,1008.45
2023-01-30T10:49:46.229Z,1008.49
2023-01-30T10:50:47.029Z,1008.52
2023-01-30T10:51:46.166Z,1008.55
2023-01-30T10:52:46.121Z,1008.54
2023-01-30T10:53:46.126Z,1008.48
2023-01-30T10:54:46.104Z,1008.50
2023-01-30T10:55:46.068Z,1008.52
2023-01-30T10:56:46.071Z,1008.49
2023-01-30T10:57:46.057Z,1008.46
2023-01-30T10:58:46.023Z,1008.47
2023-01-30T10:59:46.041Z,1008.46
2023-01-30T11:00:46.027Z,1008.44
2023-01-30T11:01:46.105Z,1008.47
2023-01-30T11:02:45.990Z,1008.47
2023-01-30T11:03:45.986Z,1008.43
2023-01-30T11:04:45.992Z,1008.49
2023-01-30T11:05:45.976Z,1008.50
2023-01-30T11:06:46.124Z,1008.46
2023-01-30T11:07:45.936Z,1008.43
2023-01-30T11:08:45.935Z,1008.37
2023-01-30T11:09:45.952Z,1008.37
2023-01-30T11:10:46.198Z,1008.44
2023-01-30T11:11:45.949Z,1008.37
2023-01-30T11:12:45.947Z,1008.35
2023-01-30T11:13:46.018Z,1008.31
2023-01-30T11:14:46.081Z,1008.21
2023-01-30T11:15:45.983Z,1008.23
2023-01-30T11:16:45.868Z,1008.16
2023-01-30T11:17:45.844Z,1008.20
2023-01-30T11:19:45.855Z,1008.31
2023-01-30T11:20:48.036Z,1008.36
2023-01-30T11:21:45.823Z,1008.30
2023-01-30T11:22:46.190Z,1008.36
2023-01-30T11:23:45.778Z,1008.34
2023-01-30T11:24:45.867Z,1008.45
2023-01-30T11:25:45.786Z,1008.36
2023-01-30T11:26:48.202Z,1008.34
2023-01-30T11:27:45.736Z,1008.35
2023-01-30T11:28:47.734Z,1008.32
2023-01-30T11:29:45.719Z,1008.28
2023-01-30T11:30:45.694Z,1008.34
2023-01-30T11:31:45.797Z,1008.28
2023-01-30T11:32:45.764Z,1008.31
2023-01-30T11:33:45.746Z,1008.27
2023-01-30T11:34:45.682Z,1008.31
2023-01-30T11:35:45.661Z,1008.37
2023-01-30T11:36:45.925Z,1008.37
2023-01-30T11:37:45.703Z,1008.46
2023-01-30T11:38:45.628Z,1008.46
2023-01-30T11:39:45.644Z,1008.45
2023-01-30T11:40:45.645Z,1008.55
2023-01-30T11:41:45.604Z,1008.55
2023-01-30T11:42:45.651Z,1008.59
2023-01-30T11:43:45.603Z,1008.48
2023-01-30T11:44:45.656Z,1008.50
2023-01-30T11:45:45.661Z,1008.40
2023-01-30T11:46:45.575Z,1008.47
2023-01-30T11:47:56.599Z,1008.52
2023-01-30T11:49:02.032Z,1008.50
2023-01-30T11:50:01.835Z,1008.58
2023-01-30T11:50:49.450Z,1008.53
2023-01-30T11:51:45.516Z,1008.54
2023-01-30T11:52:45.543Z,1008.59
2023-01-30T11:53:45.507Z,1008.58
2023-01-30T11:54:45.469Z,1008.57
2023-01-30T11:55:56.646Z,1008.61
2023-01-30T11:56:45.464Z,1008.67
2023-01-30T11:57:45.456Z,1008.69
2023-01-30T11:58:45.475Z,1008.70
2023-01-30T11:59:45.451Z,1008.66
2023-01-30T12:00:45.459Z,1008.75
2023-01-30T12:01:45.483Z,1008.79
2023-01-30T12:02:45.430Z,1008.76
2023-01-30T12:03:45.414Z,1008.85
2023-01-30T12:04:45.445Z,1008.87
2023-01-30T12:05:45.406Z,1008.82
2023-01-30T12:06:45.358Z,1008.81